sensor_id;sensor_type;location;lat;lon;timestamp;P1;durP1;ratioP1;P2;durP2;ratioP2
15287;SDS011;7745;48.708;9.026;2023-02-10T00:02:05;41.03;;;23.53;;
15287;SDS011;7745;48.708;9.026;2023-02-10T00:04:32;37.63;;;22.30;;
15287;SDS011;7745;48.708;9.026;2023-02-10T00:06:59;41.80;;;22.00;;
15287;SDS011;7745;48.708;9.026;2023-02-10T00:09:27;38.83;;;21.90;;
15287;SDS011;7745;48.708;9.026;2023-02-10T00:11:53;39.67;;;22.90;;
15287;SDS011;7745;48.708;9.026;2023-02-10T00:14:24;40.03;;;22.67;;
15287;SDS011;7745;48.708;9.026;2023-02-10T00:16:53;39.00;;;21.87;;
15287;SDS011;7745;48.708;9.026;2023-02-10T00:19:22;40.63;;;20.93;;
15287;SDS011;7745;48.708;9.026;2023-02-10T00:21:50;42.33;;;21.50;;
15287;SDS011;7745;48.708;9.026;2023-02-10T00:24:17;37.83;;;21.97;;
15287;SDS011;7745;48.708;9.026;2023-02-10T00:26:45;36.67;;;21.13;;
15287;SDS011;7745;48.708;9.026;2023-02-10T00:29:12;40.00;;;22.73;;
15287;SDS011;7745;48.708;9.026;2023-02-10T00:31:40;37.70;;;20.90;;
15287;SDS011;7745;48.708;9.026;2023-02-10T00:34:08;38.07;;;22.53;;
15287;SDS011;7745;48.708;9.026;2023-02-10T00:36:38;37.47;;;21.27;;
15287;SDS011;7745;48.708;9.026;2023-02-10T00:39:05;35.37;;;21.57;;
15287;SDS011;7745;48.708;9.026;2023-02-10T00:41:31;38.17;;;22.17;;
15287;SDS011;7745;48.708;9.026;2023-02-10T00:43:58;34.30;;;20.90;;
15287;SDS011;7745;48.708;9.026;2023-02-10T00:46:25;37.60;;;20.97;;
15287;SDS011;7745;48.708;9.026;2023-02-10T00:48:52;39.60;;;21.47;;
15287;SDS011;7745;48.708;9.026;2023-02-10T00:51:19;36.70;;;21.13;;
15287;SDS011;7745;48.708;9.026;2023-02-10T00:53:47;38.20;;;20.83;;
15287;SDS011;7745;48.708;9.026;2023-02-10T00:56:16;35.07;;;21.60;;
15287;SDS011;7745;48.708;9.026;2023-02-10T00:58:44;35.67;;;20.90;;
15287;SDS011;7745;48.708;9.026;2023-02-10T01:01:11;33.13;;;19.87;;
15287;SDS011;7745;48.708;9.026;2023-02-10T01:03:38;39.80;;;21.20;;
15287;SDS011;7745;48.708;9.026;2023-02-10T01:06:05;40.00;;;22.00;;
15287;SDS011;7745;48.708;9.026;2023-02-10T01:08:32;41.73;;;23.40;;
15287;SDS011;7745;48.708;9.026;2023-02-10T01:11:02;45.93;;;22.20;;
15287;SDS011;7745;48.708;9.026;2023-02-10T01:13:30;37.83;;;21.77;;
15287;SDS011;7745;48.708;9.026;2023-02-10T01:15:59;41.50;;;23.37;;
15287;SDS011;7745;48.708;9.026;2023-02-10T01:18:26;39.57;;;21.87;;
15287;SDS011;7745;48.708;9.026;2023-02-10T01:20:53;40.70;;;23.00;;
15287;SDS011;7745;48.708;9.026;2023-02-10T01:23:19;38.77;;;20.83;;
15287;SDS011;7745;48.708;9.026;2023-02-10T01:25:46;37.20;;;21.37;;
15287;SDS011;7745;48.708;9.026;2023-02-10T01:28:14;36.60;;;21.63;;
15287;SDS011;7745;48.708;9.026;2023-02-10T01:30:41;39.13;;;22.07;;
15287;SDS011;7745;48.708;9.026;2023-02-10T01:33:09;36.20;;;20.83;;
15287;SDS011;7745;48.708;9.026;2023-02-10T01:35:36;38.43;;;22.97;;
15287;SDS011;7745;48.708;9.026;2023-02-10T01:38:03;38.77;;;21.67;;
15287;SDS011;7745;48.708;9.026;2023-02-10T01:40:31;40.80;;;22.47;;
15287;SDS011;7745;48.708;9.026;2023-02-10T01:42:57;36.03;;;21.50;;
15287;SDS011;7745;48.708;9.026;2023-02-10T01:45:27;35.10;;;19.70;;
15287;SDS011;7745;48.708;9.026;2023-02-10T01:47:58;39.17;;;21.63;;
15287;SDS011;7745;48.708;9.026;2023-02-10T01:50:26;37.43;;;21.07;;
15287;SDS011;7745;48.708;9.026;2023-02-10T01:52:56;37.70;;;21.83;;
15287;SDS011;7745;48.708;9.026;2023-02-10T01:55:25;37.03;;;20.87;;
15287;SDS011;7745;48.708;9.026;2023-02-10T01:57:54;39.93;;;21.13;;
15287;SDS011;7745;48.708;9.026;2023-02-10T02:00:22;42.97;;;21.83;;
15287;SDS011;7745;48.708;9.026;2023-02-10T02:02:52;39.93;;;22.50;;
15287;SDS011;7745;48.708;9.026;2023-02-10T02:05:39;38.93;;;20.87;;
15287;SDS011;7745;48.708;9.026;2023-02-10T02:08:08;38.10;;;20.53;;
15287;SDS011;7745;48.708;9.026;2023-02-10T02:10:52;38.00;;;21.07;;
15287;SDS011;7745;48.708;9.026;2023-02-10T02:13:29;38.73;;;22.37;;
15287;SDS011;7745;48.708;9.026;2023-02-10T02:16:07;40.90;;;22.77;;
15287;SDS011;7745;48.708;9.026;2023-02-10T02:18:43;40.33;;;20.93;;
15287;SDS011;7745;48.708;9.026;2023-02-10T02:21:18;37.67;;;20.87;;
15287;SDS011;7745;48.708;9.026;2023-02-10T02:24:21;33.63;;;19.80;;
15287;SDS011;7745;48.708;9.026;2023-02-10T02:27:09;39.37;;;20.93;;
15287;SDS011;7745;48.708;9.026;2023-02-10T02:29:48;36.33;;;21.47;;
15287;SDS011;7745;48.708;9.026;2023-02-10T02:32:34;41.13;;;22.07;;
15287;SDS011;7745;48.708;9.026;2023-02-10T02:35:08;42.13;;;22.63;;
15287;SDS011;7745;48.708;9.026;2023-02-10T02:37:39;36.23;;;20.97;;
15287;SDS011;7745;48.708;9.026;2023-02-10T02:40:09;40.33;;;23.20;;
15287;SDS011;7745;48.708;9.026;2023-02-10T02:42:37;40.07;;;22.53;;
15287;SDS011;7745;48.708;9.026;2023-02-10T02:45:05;36.50;;;21.50;;
15287;SDS011;7745;48.708;9.026;2023-02-10T02:47:46;40.17;;;22.23;;
15287;SDS011;7745;48.708;9.026;2023-02-10T02:50:30;42.57;;;20.80;;
15287;SDS011;7745;48.708;9.026;2023-02-10T02:53:05;43.10;;;23.93;;
15287;SDS011;7745;48.708;9.026;2023-02-10T02:55:43;41.30;;;22.43;;
15287;SDS011;7745;48.708;9.026;2023-02-10T02:58:20;37.83;;;21.40;;
15287;SDS011;7745;48.708;9.026;2023-02-10T03:00:57;41.30;;;22.80;;
15287;SDS011;7745;48.708;9.026;2023-02-10T03:03:31;38.90;;;21.67;;
15287;SDS011;7745;48.708;9.026;2023-02-10T03:05:58;39.77;;;21.77;;
15287;SDS011;7745;48.708;9.026;2023-02-10T03:08:25;41.33;;;23.47;;
15287;SDS011;7745;48.708;9.026;2023-02-10T03:10:54;39.20;;;22.20;;
15287;SDS011;7745;48.708;9.026;2023-02-10T03:13:20;41.37;;;22.93;;
15287;SDS011;7745;48.708;9.026;2023-02-10T03:15:47;42.43;;;24.63;;
15287;SDS011;7745;48.708;9.026;2023-02-10T03:18:14;41.63;;;22.43;;
15287;SDS011;7745;48.708;9.026;2023-02-10T03:20:43;48.73;;;23.27;;
15287;SDS011;7745;48.708;9.026;2023-02-10T03:23:10;45.60;;;23.93;;
15287;SDS011;7745;48.708;9.026;2023-02-10T03:25:37;38.00;;;23.33;;
15287;SDS011;7745;48.708;9.026;2023-02-10T03:28:07;43.77;;;24.40;;
15287;SDS011;7745;48.708;9.026;2023-02-10T03:30:34;41.80;;;23.63;;
15287;SDS011;7745;48.708;9.026;2023-02-10T03:33:00;39.43;;;22.83;;
15287;SDS011;7745;48.708;9.026;2023-02-10T03:35:27;42.80;;;23.10;;
15287;SDS011;7745;48.708;9.026;2023-02-10T03:37:55;41.33;;;23.50;;
15287;SDS011;7745;48.708;9.026;2023-02-10T03:40:22;41.07;;;23.70;;
15287;SDS011;7745;48.708;9.026;2023-02-10T03:42:49;41.40;;;23.73;;
15287;SDS011;7745;48.708;9.026;2023-02-10T03:45:16;41.90;;;24.53;;
15287;SDS011;7745;48.708;9.026;2023-02-10T03:47:43;42.67;;;24.97;;
15287;SDS011;7745;48.708;9.026;2023-02-10T03:50:09;45.30;;;25.10;;
15287;SDS011;7745;48.708;9.026;2023-02-10T03:52:36;50.23;;;25.80;;
15287;SDS011;7745;48.708;9.026;2023-02-10T03:55:05;56.13;;;28.67;;
15287;SDS011;7745;48.708;9.026;2023-02-10T03:57:32;72.60;;;31.00;;
15287;SDS011;7745;48.708;9.026;2023-02-10T03:59:59;70.47;;;32.47;;
15287;SDS011;7745;48.708;9.026;2023-02-10T04:02:26;71.87;;;34.57;;
15287;SDS011;7745;48.708;9.026;2023-02-10T04:04:53;74.10;;;35.93;;
15287;SDS011;7745;48.708;9.026;2023-02-10T04:07:19;79.83;;;37.53;;
15287;SDS011;7745;48.708;9.026;2023-02-10T04:09:46;73.90;;;34.80;;
15287;SDS011;7745;48.708;9.026;2023-02-10T04:12:14;62.83;;;31.47;;
15287;SDS011;7745;48.708;9.026;2023-02-10T04:14:41;56.47;;;30.37;;
15287;SDS011;7745;48.708;9.026;2023-02-10T04:17:08;59.67;;;29.50;;
15287;SDS011;7745;48.708;9.026;2023-02-10T04:19:35;63.47;;;31.80;;
15287;SDS011;7745;48.708;9.026;2023-02-10T04:22:02;58.00;;;29.70;;
15287;SDS011;7745;48.708;9.026;2023-02-10T04:24:28;58.00;;;30.60;;
15287;SDS011;7745;48.708;9.026;2023-02-10T04:26:55;62.57;;;29.67;;
15287;SDS011;7745;48.708;9.026;2023-02-10T04:29:23;61.73;;;30.70;;
15287;SDS011;7745;48.708;9.026;2023-02-10T04:31:50;61.27;;;30.53;;
15287;SDS011;7745;48.708;9.026;2023-02-10T04:34:17;51.40;;;27.77;;
15287;SDS011;7745;48.708;9.026;2023-02-10T04:36:44;46.83;;;25.93;;
15287;SDS011;7745;48.708;9.026;2023-02-10T04:39:11;53.70;;;27.23;;
15287;SDS011;7745;48.708;9.026;2023-02-10T04:41:37;44.80;;;24.37;;
15287;SDS011;7745;48.708;9.026;2023-02-10T04:44:04;47.77;;;26.77;;
15287;SDS011;7745;48.708;9.026;2023-02-10T04:46:33;43.03;;;24.13;;
15287;SDS011;7745;48.708;9.026;2023-02-10T04:49:00;46.70;;;25.37;;
15287;SDS011;7745;48.708;9.026;2023-02-10T04:51:26;46.27;;;23.93;;
15287;SDS011;7745;48.708;9.026;2023-02-10T04:53:53;45.80;;;26.53;;
15287;SDS011;7745;48.708;9.026;2023-02-10T04:56:20;47.87;;;28.40;;
15287;SDS011;7745;48.708;9.026;2023-02-10T04:58:47;52.30;;;27.53;;
15287;SDS011;7745;48.708;9.026;2023-02-10T05:01:14;51.50;;;27.50;;
15287;SDS011;7745;48.708;9.026;2023-02-10T05:03:42;49.93;;;26.00;;
15287;SDS011;7745;48.708;9.026;2023-02-10T05:06:10;50.43;;;25.97;;
15287;SDS011;7745;48.708;9.026;2023-02-10T05:08:39;44.60;;;24.97;;
15287;SDS011;7745;48.708;9.026;2023-02-10T05:11:06;48.57;;;26.00;;
15287;SDS011;7745;48.708;9.026;2023-02-10T05:13:34;50.13;;;25.30;;
15287;SDS011;7745;48.708;9.026;2023-02-10T05:16:01;47.30;;;24.37;;
15287;SDS011;7745;48.708;9.026;2023-02-10T05:18:29;41.00;;;23.83;;
15287;SDS011;7745;48.708;9.026;2023-02-10T05:20:57;42.83;;;24.20;;
15287;SDS011;7745;48.708;9.026;2023-02-10T05:23:24;40.07;;;24.07;;
15287;SDS011;7745;48.708;9.026;2023-02-10T05:25:52;44.80;;;23.67;;
15287;SDS011;7745;48.708;9.026;2023-02-10T05:28:19;43.03;;;24.90;;
15287;SDS011;7745;48.708;9.026;2023-02-10T05:30:46;42.60;;;25.00;;
15287;SDS011;7745;48.708;9.026;2023-02-10T05:33:14;43.40;;;24.20;;
15287;SDS011;7745;48.708;9.026;2023-02-10T05:35:41;44.03;;;24.33;;
15287;SDS011;7745;48.708;9.026;2023-02-10T05:38:09;43.57;;;26.10;;
15287;SDS011;7745;48.708;9.026;2023-02-10T05:40:36;46.23;;;25.40;;
15287;SDS011;7745;48.708;9.026;2023-02-10T05:43:03;43.50;;;25.83;;
15287;SDS011;7745;48.708;9.026;2023-02-10T05:45:30;48.80;;;26.30;;
15287;SDS011;7745;48.708;9.026;2023-02-10T05:47:57;42.20;;;24.60;;
15287;SDS011;7745;48.708;9.026;2023-02-10T05:50:23;50.30;;;26.43;;
15287;SDS011;7745;48.708;9.026;2023-02-10T05:52:50;49.50;;;25.90;;
15287;SDS011;7745;48.708;9.026;2023-02-10T05:55:18;43.47;;;25.07;;
15287;SDS011;7745;48.708;9.026;2023-02-10T05:57:46;47.33;;;26.00;;
15287;SDS011;7745;48.708;9.026;2023-02-10T06:00:13;45.07;;;24.93;;
15287;SDS011;7745;48.708;9.026;2023-02-10T06:02:44;46.07;;;24.63;;
15287;SDS011;7745;48.708;9.026;2023-02-10T06:05:10;40.37;;;24.20;;
15287;SDS011;7745;48.708;9.026;2023-02-10T06:07:37;42.20;;;23.87;;
15287;SDS011;7745;48.708;9.026;2023-02-10T06:10:04;43.60;;;24.13;;
15287;SDS011;7745;48.708;9.026;2023-02-10T06:12:34;39.50;;;23.73;;
15287;SDS011;7745;48.708;9.026;2023-02-10T06:15:01;41.47;;;25.33;;
15287;SDS011;7745;48.708;9.026;2023-02-10T06:17:28;41.03;;;24.93;;
15287;SDS011;7745;48.708;9.026;2023-02-10T06:19:56;43.50;;;24.97;;
15287;SDS011;7745;48.708;9.026;2023-02-10T06:22:23;38.27;;;23.30;;
15287;SDS011;7745;48.708;9.026;2023-02-10T06:24:50;41.07;;;23.57;;
15287;SDS011;7745;48.708;9.026;2023-02-10T06:27:16;44.53;;;24.63;;
15287;SDS011;7745;48.708;9.026;2023-02-10T06:29:45;43.83;;;23.47;;
15287;SDS011;7745;48.708;9.026;2023-02-10T06:32:13;54.80;;;28.03;;
15287;SDS011;7745;48.708;9.026;2023-02-10T06:34:40;54.03;;;27.73;;
15287;SDS011;7745;48.708;9.026;2023-02-10T06:37:07;50.57;;;26.20;;
15287;SDS011;7745;48.708;9.026;2023-02-10T06:39:34;52.37;;;26.27;;
15287;SDS011;7745;48.708;9.026;2023-02-10T06:42:01;51.43;;;26.90;;
15287;SDS011;7745;48.708;9.026;2023-02-10T06:44:28;47.70;;;24.40;;
15287;SDS011;7745;48.708;9.026;2023-02-10T06:46:56;42.83;;;24.60;;
15287;SDS011;7745;48.708;9.026;2023-02-10T06:49:22;43.63;;;25.10;;
15287;SDS011;7745;48.708;9.026;2023-02-10T06:51:49;45.60;;;24.67;;
15287;SDS011;7745;48.708;9.026;2023-02-10T06:54:16;40.30;;;23.53;;
15287;SDS011;7745;48.708;9.026;2023-02-10T06:56:43;43.10;;;23.23;;
15287;SDS011;7745;48.708;9.026;2023-02-10T06:59:11;39.63;;;22.57;;
15287;SDS011;7745;48.708;9.026;2023-02-10T07:01:38;42.47;;;23.33;;
15287;SDS011;7745;48.708;9.026;2023-02-10T07:04:06;43.70;;;23.53;;
15287;SDS011;7745;48.708;9.026;2023-02-10T07:06:33;41.93;;;22.67;;
15287;SDS011;7745;48.708;9.026;2023-02-10T07:09:00;40.33;;;22.17;;
15287;SDS011;7745;48.708;9.026;2023-02-10T07:11:28;44.00;;;22.63;;
15287;SDS011;7745;48.708;9.026;2023-02-10T07:14:03;43.27;;;24.67;;
15287;SDS011;7745;48.708;9.026;2023-02-10T07:16:32;66.80;;;32.20;;
15287;SDS011;7745;48.708;9.026;2023-02-10T07:18:59;66.20;;;31.47;;
15287;SDS011;7745;48.708;9.026;2023-02-10T07:21:28;50.80;;;28.63;;
15287;SDS011;7745;48.708;9.026;2023-02-10T07:23:54;48.40;;;26.03;;
15287;SDS011;7745;48.708;9.026;2023-02-10T07:26:21;47.30;;;25.40;;
15287;SDS011;7745;48.708;9.026;2023-02-10T07:28:49;46.27;;;25.20;;
15287;SDS011;7745;48.708;9.026;2023-02-10T07:31:15;42.27;;;24.50;;
15287;SDS011;7745;48.708;9.026;2023-02-10T07:33:42;43.47;;;25.37;;
15287;SDS011;7745;48.708;9.026;2023-02-10T07:36:09;45.67;;;25.73;;
15287;SDS011;7745;48.708;9.026;2023-02-10T07:38:37;42.27;;;24.50;;
15287;SDS011;7745;48.708;9.026;2023-02-10T07:41:04;43.73;;;24.80;;
15287;SDS011;7745;48.708;9.026;2023-02-10T07:43:31;40.30;;;24.23;;
15287;SDS011;7745;48.708;9.026;2023-02-10T07:45:58;46.57;;;24.13;;
15287;SDS011;7745;48.708;9.026;2023-02-10T07:48:26;47.23;;;26.33;;
15287;SDS011;7745;48.708;9.026;2023-02-10T07:50:53;45.57;;;24.17;;
15287;SDS011;7745;48.708;9.026;2023-02-10T07:53:20;42.17;;;25.50;;
15287;SDS011;7745;48.708;9.026;2023-02-10T07:55:49;47.13;;;26.47;;
15287;SDS011;7745;48.708;9.026;2023-02-10T07:58:15;43.43;;;26.60;;
15287;SDS011;7745;48.708;9.026;2023-02-10T08:00:42;47.53;;;27.07;;
15287;SDS011;7745;48.708;9.026;2023-02-10T08:03:10;44.07;;;25.73;;
15287;SDS011;7745;48.708;9.026;2023-02-10T08:05:39;44.73;;;25.17;;
15287;SDS011;7745;48.708;9.026;2023-02-10T08:08:08;46.27;;;26.43;;
15287;SDS011;7745;48.708;9.026;2023-02-10T08:14:01;41.93;;;26.27;;
15287;SDS011;7745;48.708;9.026;2023-02-10T08:16:31;41.53;;;24.67;;
15287;SDS011;7745;48.708;9.026;2023-02-10T08:18:58;45.63;;;26.23;;
15287;SDS011;7745;48.708;9.026;2023-02-10T08:21:25;43.43;;;26.27;;
15287;SDS011;7745;48.708;9.026;2023-02-10T08:23:52;42.00;;;24.87;;
15287;SDS011;7745;48.708;9.026;2023-02-10T08:26:20;39.90;;;25.03;;
15287;SDS011;7745;48.708;9.026;2023-02-10T08:28:47;41.33;;;24.63;;
15287;SDS011;7745;48.708;9.026;2023-02-10T08:31:16;40.53;;;23.57;;
15287;SDS011;7745;48.708;9.026;2023-02-10T08:33:43;41.93;;;25.00;;
15287;SDS011;7745;48.708;9.026;2023-02-10T08:36:10;40.87;;;24.87;;
15287;SDS011;7745;48.708;9.026;2023-02-10T08:38:39;41.73;;;23.80;;
15287;SDS011;7745;48.708;9.026;2023-02-10T08:41:06;40.57;;;24.17;;
15287;SDS011;7745;48.708;9.026;2023-02-10T08:43:33;40.33;;;24.27;;
15287;SDS011;7745;48.708;9.026;2023-02-10T08:46:00;43.30;;;25.80;;
15287;SDS011;7745;48.708;9.026;2023-02-10T08:48:29;38.70;;;25.27;;
15287;SDS011;7745;48.708;9.026;2023-02-10T08:50:56;40.20;;;25.00;;
15287;SDS011;7745;48.708;9.026;2023-02-10T08:53:23;41.73;;;25.00;;
15287;SDS011;7745;48.708;9.026;2023-02-10T08:55:57;37.97;;;24.17;;
15287;SDS011;7745;48.708;9.026;2023-02-10T08:58:24;43.07;;;25.83;;
15287;SDS011;7745;48.708;9.026;2023-02-10T09:00:51;40.93;;;25.00;;
15287;SDS011;7745;48.708;9.026;2023-02-10T09:03:18;44.03;;;26.20;;
15287;SDS011;7745;48.708;9.026;2023-02-10T09:05:47;41.33;;;25.13;;
15287;SDS011;7745;48.708;9.026;2023-02-10T09:08:14;40.47;;;25.37;;
15287;SDS011;7745;48.708;9.026;2023-02-10T09:10:41;41.53;;;25.97;;
15287;SDS011;7745;48.708;9.026;2023-02-10T09:13:10;46.83;;;25.83;;
15287;SDS011;7745;48.708;9.026;2023-02-10T09:15:37;41.87;;;25.73;;
15287;SDS011;7745;48.708;9.026;2023-02-10T09:18:06;43.97;;;27.00;;
15287;SDS011;7745;48.708;9.026;2023-02-10T09:20:33;39.10;;;24.60;;
15287;SDS011;7745;48.708;9.026;2023-02-10T09:23:02;41.83;;;24.33;;
15287;SDS011;7745;48.708;9.026;2023-02-10T09:25:29;41.40;;;24.63;;
15287;SDS011;7745;48.708;9.026;2023-02-10T09:27:56;43.07;;;26.13;;
15287;SDS011;7745;48.708;9.026;2023-02-10T09:30:23;39.53;;;24.00;;
15287;SDS011;7745;48.708;9.026;2023-02-10T09:32:51;42.80;;;25.50;;
15287;SDS011;7745;48.708;9.026;2023-02-10T09:35:17;44.27;;;25.53;;
15287;SDS011;7745;48.708;9.026;2023-02-10T09:38:02;44.67;;;26.00;;
15287;SDS011;7745;48.708;9.026;2023-02-10T09:41:08;41.10;;;25.53;;
15287;SDS011;7745;48.708;9.026;2023-02-10T09:43:51;43.53;;;24.37;;
15287;SDS011;7745;48.708;9.026;2023-02-10T09:46:34;41.70;;;24.50;;
15287;SDS011;7745;48.708;9.026;2023-02-10T09:49:13;43.73;;;25.53;;
15287;SDS011;7745;48.708;9.026;2023-02-10T09:51:50;39.60;;;23.87;;
15287;SDS011;7745;48.708;9.026;2023-02-10T09:54:23;39.70;;;24.13;;
15287;SDS011;7745;48.708;9.026;2023-02-10T09:56:57;42.30;;;26.07;;
15287;SDS011;7745;48.708;9.026;2023-02-10T09:59:27;40.07;;;24.57;;
15287;SDS011;7745;48.708;9.026;2023-02-10T10:01:56;40.47;;;24.43;;
15287;SDS011;7745;48.708;9.026;2023-02-10T10:04:28;38.93;;;22.90;;
15287;SDS011;7745;48.708;9.026;2023-02-10T10:06:58;40.77;;;24.47;;
15287;SDS011;7745;48.708;9.026;2023-02-10T10:09:37;42.07;;;24.97;;
15287;SDS011;7745;48.708;9.026;2023-02-10T10:12:09;41.93;;;24.37;;
15287;SDS011;7745;48.708;9.026;2023-02-10T10:14:40;40.90;;;24.33;;
15287;SDS011;7745;48.708;9.026;2023-02-10T10:17:17;36.57;;;23.80;;
15287;SDS011;7745;48.708;9.026;2023-02-10T10:19:59;37.73;;;22.60;;
15287;SDS011;7745;48.708;9.026;2023-02-10T10:22:41;37.47;;;22.57;;
15287;SDS011;7745;48.708;9.026;2023-02-10T10:25:21;35.27;;;21.67;;
15287;SDS011;7745;48.708;9.026;2023-02-10T10:28:01;35.53;;;21.80;;
15287;SDS011;7745;48.708;9.026;2023-02-10T10:30:39;39.67;;;23.90;;
15287;SDS011;7745;48.708;9.026;2023-02-10T10:33:14;36.73;;;23.50;;
15287;SDS011;7745;48.708;9.026;2023-02-10T10:35:47;39.10;;;22.83;;
15287;SDS011;7745;48.708;9.026;2023-02-10T10:38:15;34.93;;;21.40;;
15287;SDS011;7745;48.708;9.026;2023-02-10T10:40:46;37.93;;;21.33;;
15287;SDS011;7745;48.708;9.026;2023-02-10T10:43:17;33.50;;;21.83;;
15287;SDS011;7745;48.708;9.026;2023-02-10T10:45:50;35.73;;;20.43;;
15287;SDS011;7745;48.708;9.026;2023-02-10T10:48:20;31.27;;;20.73;;
15287;SDS011;7745;48.708;9.026;2023-02-10T10:50:52;32.87;;;19.77;;
15287;SDS011;7745;48.708;9.026;2023-02-10T10:53:22;34.33;;;18.90;;
15287;SDS011;7745;48.708;9.026;2023-02-10T10:56:01;36.60;;;19.90;;
15287;SDS011;7745;48.708;9.026;2023-02-10T10:58:34;31.30;;;18.80;;
15287;SDS011;7745;48.708;9.026;2023-02-10T11:01:04;27.10;;;16.97;;
15287;SDS011;7745;48.708;9.026;2023-02-10T11:03:31;29.77;;;18.07;;
15287;SDS011;7745;48.708;9.026;2023-02-10T11:06:00;29.80;;;18.90;;
15287;SDS011;7745;48.708;9.026;2023-02-10T11:08:31;30.63;;;19.03;;
15287;SDS011;7745;48.708;9.026;2023-02-10T11:11:04;30.10;;;18.77;;
15287;SDS011;7745;48.708;9.026;2023-02-10T11:13:36;25.33;;;16.77;;
15287;SDS011;7745;48.708;9.026;2023-02-10T11:16:05;25.90;;;17.27;;
15287;SDS011;7745;48.708;9.026;2023-02-10T11:18:35;25.20;;;16.77;;
15287;SDS011;7745;48.708;9.026;2023-02-10T11:21:04;27.23;;;17.77;;
15287;SDS011;7745;48.708;9.026;2023-02-10T11:23:35;28.10;;;17.03;;
15287;SDS011;7745;48.708;9.026;2023-02-10T11:26:15;27.27;;;17.50;;
15287;SDS011;7745;48.708;9.026;2023-02-10T11:28:45;31.03;;;17.70;;
15287;SDS011;7745;48.708;9.026;2023-02-10T11:31:17;29.00;;;15.53;;
15287;SDS011;7745;48.708;9.026;2023-02-10T11:33:54;25.47;;;17.40;;
15287;SDS011;7745;48.708;9.026;2023-02-10T11:36:28;24.30;;;16.00;;
15287;SDS011;7745;48.708;9.026;2023-02-10T11:38:58;31.20;;;17.13;;
15287;SDS011;7745;48.708;9.026;2023-02-10T11:41:28;28.07;;;15.63;;
15287;SDS011;7745;48.708;9.026;2023-02-10T11:43:57;26.77;;;17.40;;
15287;SDS011;7745;48.708;9.026;2023-02-10T11:46:24;75.13;;;20.87;;
15287;SDS011;7745;48.708;9.026;2023-02-10T11:48:53;26.00;;;17.33;;
15287;SDS011;7745;48.708;9.026;2023-02-10T11:51:22;25.70;;;16.07;;
15287;SDS011;7745;48.708;9.026;2023-02-10T11:53:49;26.17;;;16.53;;
15287;SDS011;7745;48.708;9.026;2023-02-10T11:56:18;29.67;;;17.07;;
15287;SDS011;7745;48.708;9.026;2023-02-10T11:59:10;24.80;;;15.50;;
15287;SDS011;7745;48.708;9.026;2023-02-10T12:01:51;24.07;;;15.27;;
15287;SDS011;7745;48.708;9.026;2023-02-10T12:07:15;25.23;;;15.73;;
15287;SDS011;7745;48.708;9.026;2023-02-10T12:09:52;41.13;;;16.17;;
15287;SDS011;7745;48.708;9.026;2023-02-10T12:12:26;23.43;;;15.20;;
15287;SDS011;7745;48.708;9.026;2023-02-10T12:15:03;29.30;;;16.03;;
15287;SDS011;7745;48.708;9.026;2023-02-10T12:17:39;23.50;;;14.87;;
15287;SDS011;7745;48.708;9.026;2023-02-10T12:20:18;20.50;;;14.57;;
15287;SDS011;7745;48.708;9.026;2023-02-10T12:26:00;19.43;;;13.70;;
15287;SDS011;7745;48.708;9.026;2023-02-10T12:28:36;20.27;;;14.03;;
15287;SDS011;7745;48.708;9.026;2023-02-10T12:31:16;20.97;;;14.50;;
15287;SDS011;7745;48.708;9.026;2023-02-10T12:33:59;20.43;;;14.30;;
15287;SDS011;7745;48.708;9.026;2023-02-10T12:36:36;19.63;;;13.97;;
15287;SDS011;7745;48.708;9.026;2023-02-10T12:39:12;22.03;;;14.30;;
15287;SDS011;7745;48.708;9.026;2023-02-10T12:41:47;23.47;;;15.50;;
15287;SDS011;7745;48.708;9.026;2023-02-10T12:44:28;22.20;;;15.10;;
15287;SDS011;7745;48.708;9.026;2023-02-10T12:47:08;19.77;;;14.03;;
15287;SDS011;7745;48.708;9.026;2023-02-10T12:49:48;25.73;;;15.43;;
15287;SDS011;7745;48.708;9.026;2023-02-10T12:52:23;28.80;;;15.17;;
15287;SDS011;7745;48.708;9.026;2023-02-10T12:54:56;20.67;;;14.50;;
15287;SDS011;7745;48.708;9.026;2023-02-10T12:57:27;27.90;;;14.97;;
15287;SDS011;7745;48.708;9.026;2023-02-10T12:59:59;23.90;;;15.47;;
15287;SDS011;7745;48.708;9.026;2023-02-10T13:02:36;21.23;;;14.73;;
15287;SDS011;7745;48.708;9.026;2023-02-10T13:05:07;22.43;;;14.47;;
15287;SDS011;7745;48.708;9.026;2023-02-10T13:07:39;24.50;;;16.13;;
15287;SDS011;7745;48.708;9.026;2023-02-10T13:10:20;22.07;;;15.10;;
15287;SDS011;7745;48.708;9.026;2023-02-10T13:12:54;23.80;;;14.97;;
15287;SDS011;7745;48.708;9.026;2023-02-10T13:15:25;21.70;;;14.53;;
15287;SDS011;7745;48.708;9.026;2023-02-10T13:17:57;23.10;;;15.57;;
15287;SDS011;7745;48.708;9.026;2023-02-10T13:20:34;27.10;;;15.50;;
15287;SDS011;7745;48.708;9.026;2023-02-10T13:23:13;24.03;;;14.93;;
15287;SDS011;7745;48.708;9.026;2023-02-10T13:25:51;24.00;;;14.87;;
15287;SDS011;7745;48.708;9.026;2023-02-10T13:28:40;24.43;;;15.10;;
15287;SDS011;7745;48.708;9.026;2023-02-10T13:31:18;21.60;;;14.70;;
15287;SDS011;7745;48.708;9.026;2023-02-10T13:33:56;21.80;;;15.17;;
15287;SDS011;7745;48.708;9.026;2023-02-10T13:36:28;26.50;;;15.97;;
15287;SDS011;7745;48.708;9.026;2023-02-10T13:38:59;24.70;;;14.77;;
15287;SDS011;7745;48.708;9.026;2023-02-10T13:41:30;21.47;;;14.73;;
15287;SDS011;7745;48.708;9.026;2023-02-10T13:44:19;18.60;;;14.23;;
15287;SDS011;7745;48.708;9.026;2023-02-10T13:46:53;22.47;;;14.67;;
15287;SDS011;7745;48.708;9.026;2023-02-10T13:49:24;24.57;;;15.77;;
15287;SDS011;7745;48.708;9.026;2023-02-10T13:51:58;22.40;;;15.30;;
15287;SDS011;7745;48.708;9.026;2023-02-10T13:54:30;21.37;;;14.93;;
15287;SDS011;7745;48.708;9.026;2023-02-10T13:57:00;26.53;;;16.40;;
15287;SDS011;7745;48.708;9.026;2023-02-10T13:59:35;26.13;;;17.40;;
15287;SDS011;7745;48.708;9.026;2023-02-10T14:04:49;25.97;;;16.83;;
15287;SDS011;7745;48.708;9.026;2023-02-10T14:07:30;27.60;;;18.57;;
15287;SDS011;7745;48.708;9.026;2023-02-10T14:10:00;24.43;;;16.63;;
15287;SDS011;7745;48.708;9.026;2023-02-10T14:12:30;27.10;;;17.50;;
15287;SDS011;7745;48.708;9.026;2023-02-10T14:15:12;25.73;;;17.17;;
15287;SDS011;7745;48.708;9.026;2023-02-10T14:17:52;24.20;;;16.90;;
15287;SDS011;7745;48.708;9.026;2023-02-10T14:20:25;24.87;;;16.87;;
15287;SDS011;7745;48.708;9.026;2023-02-10T14:22:55;26.90;;;18.10;;
15287;SDS011;7745;48.708;9.026;2023-02-10T14:25:27;25.50;;;16.90;;
15287;SDS011;7745;48.708;9.026;2023-02-10T14:28:00;23.70;;;16.47;;
15287;SDS011;7745;48.708;9.026;2023-02-10T14:30:36;25.13;;;17.23;;
15287;SDS011;7745;48.708;9.026;2023-02-10T14:33:06;22.60;;;15.63;;
15287;SDS011;7745;48.708;9.026;2023-02-10T14:35:50;26.57;;;15.97;;
15287;SDS011;7745;48.708;9.026;2023-02-10T14:38:19;26.43;;;18.10;;
15287;SDS011;7745;48.708;9.026;2023-02-10T14:40:48;25.37;;;17.37;;
15287;SDS011;7745;48.708;9.026;2023-02-10T14:43:18;26.83;;;17.70;;
15287;SDS011;7745;48.708;9.026;2023-02-10T14:45:49;28.10;;;17.97;;
15287;SDS011;7745;48.708;9.026;2023-02-10T14:48:16;27.73;;;18.53;;
15287;SDS011;7745;48.708;9.026;2023-02-10T14:50:57;24.77;;;18.00;;
15287;SDS011;7745;48.708;9.026;2023-02-10T14:53:32;26.70;;;18.00;;
15287;SDS011;7745;48.708;9.026;2023-02-10T14:56:05;26.13;;;18.53;;
15287;SDS011;7745;48.708;9.026;2023-02-10T14:58:31;25.37;;;17.37;;
15287;SDS011;7745;48.708;9.026;2023-02-10T15:01:00;26.83;;;18.00;;
15287;SDS011;7745;48.708;9.026;2023-02-10T15:03:31;25.03;;;18.20;;
15287;SDS011;7745;48.708;9.026;2023-02-10T15:06:01;29.00;;;18.90;;